KIJX/IJX METAR and TAF weather

Enter ICAO airport designator
Station Type Date Time Source
KIJX METAR 2019/08/25 13:35 UTC NOAA

KIJX 251335Z AUTO 09008KT 10SM SCT060 BKN100 17/15 A3004 RMK AO2 T01650151


Station Type Date Time Source
KIJX Decoded METAR 2019/08/25 13:35 UTC NOAA

Station name not available
Aug 25, 2019 - 09:35 AM EDT / 2019.08.25 1335 UTC
Wind: from the E (090 degrees) at 9 MPH (8 KT):0
Visibility: 10 mile(s):0
Sky conditions: mostly cloudy
Temperature: 61.7 F (16.5 C)
Dew Point: 59.2 F (15.1 C)
Relative Humidity: 91%
Pressure (altimeter): 30.04 in. Hg (1017 hPa)
ob: KIJX 251335Z AUTO 09008KT 10SM SCT060 BKN100 17/15 A3004 RMK AO2 T01650151
cycle: 13

Station Type Date Time Source
KIJX TAF UTC NOAA

Error!

Example: see airport list